KB7SAT Weather Reports


Display with metric or nautical units.
time (UTC)temp
F
wind
direction
speed
MPH
gust
MPH
rain 1hr
in
rain 24hr
in
rain mn
in
humidity
%
barometer
mb
20240302012526 65 140 7.0 11.0 0.00 0.00 0.00 25 1098.9
20240302012025 66 176 11.0 17.0 0.00 0.00 0.00 24 1098.7
20240302011523 66 135 5.0 15.0 0.00 0.00 0.00 22 1098.9
20240302011022 67 164 12.0 15.0 0.00 0.00 0.00 20 1098.6
20240302010520 67 152 11.0 15.0 0.00 0.00 0.00 20 1099.0
20240302010019 67 155 6.0 15.0 0.00 0.00 0.00 19 1098.6
20240302005519 67 162 10.0 15.0 0.00 0.00 0.00 19 1098.7
20240302005017 67 178 9.0 14.0 0.00 0.00 0.00 20 1098.6
20240302004516 67 159 12.0 16.0 0.00 0.00 0.00 19 1098.6
20240302004014 67 147 10.0 13.0 0.00 0.00 0.00 18 1098.7
20240302003513 67 163 6.0 14.0 0.00 0.00 0.00 20 1099.0
20240302003012 68 159 9.0 14.0 0.00 0.00 0.00 20 1098.9
20240302002511 68 153 11.0 17.0 0.00 0.00 0.00 20 1099.1
20240302002009 68 168 8.0 17.0 0.00 0.00 0.00 21 1099.2
20240302001508 67 135 9.0 17.0 0.00 0.00 0.00 21 1099.1
20240302001006 68 153 16.0 23.0 0.00 0.00 0.00 22 1099.2
20240302000505 68 152 11.0 18.0 0.00 0.00 0.00 22 1099.2
20240302000004 68 175 12.0 23.0 0.00 0.00 0.00 20 1099.2
20240301235504 68 178 4.0 21.0 0.00 0.00 0.00 18 1099.2
20240301235003 69 141 10.0 24.0 0.00 0.00 0.00 17 1099.4
20240301234503 69 177 7.0 10.0 0.00 0.00 0.00 16 1099.0
20240301234002 69 159 11.0 25.0 0.00 0.00 0.00 16 1099.2
20240301233501 69 149 9.0 16.0 0.00 0.00 0.00 15 1099.0
20240301232959 69 167 11.0 17.0 0.00 0.00 0.00 18 1099.3
20240301232459 69 126 17.0 21.0 0.00 0.00 0.00 19 1099.1
20240301231957 69 166 11.0 23.0 0.00 0.00 0.00 19 1099.3
20240301231455 69 119 7.0 16.0 0.00 0.00 0.00 18 1099.4
20240301230955 69 146 11.0 17.0 0.00 0.00 0.00 18 1099.4
20240301230453 69 153 12.0 22.0 0.00 0.00 0.00 18 1099.6
20240301225952 69 127 12.0 19.0 0.00 0.00 0.00 18 1099.7
20240301225452 69 152 15.0 24.0 0.00 0.00 0.00 17 1099.5
20240301224951 69 146 11.0 17.0 0.00 0.00 0.00 18 1099.7
20240301224450 70 171 10.0 25.0 0.00 0.00 0.00 17 1099.8
20240301223950 69 163 9.0 22.0 0.00 0.00 0.00 18 1099.9
20240301223449 69 156 7.0 17.0 0.00 0.00 0.00 19 1100.1
20240301222948 69 161 6.0 17.0 0.00 0.00 0.00 19 1099.9
20240301222447 69 155 10.0 15.0 0.00 0.00 0.00 18 1100.2
20240301221947 70 150 6.0 11.0 0.00 0.00 0.00 18 1100.3
20240301221445 69 165 9.0 13.0 0.00 0.00 0.00 18 1100.2
20240301220945 71 152 13.0 18.0 0.00 0.00 0.00 19 1100.3
20240301220444 69 94 10.0 13.0 0.00 0.00 0.00 19 1100.3
20240301215944 69 138 11.0 15.0 0.00 0.00 0.00 19 1100.5
20240301215444 70 161 11.0 18.0 0.00 0.00 0.00 19 1100.5
20240301214943 70 147 9.0 16.0 0.00 0.00 0.00 18 1100.5
20240301214441 70 134 6.0 13.0 0.00 0.00 0.00 18 1100.6
20240301213940 69 189 7.0 19.0 0.00 0.00 0.00 19 1100.6
20240301213441 70 152 13.0 15.0 0.00 0.00 0.00 18 1100.6
20240301212940 70 159 9.0 22.0 0.00 0.00 0.00 18 1100.7
20240301212438 70 145 13.0 18.0 0.00 0.00 0.00 18 1100.7
20240301211938 69 172 14.0 21.0 0.00 0.00 0.00 18 1100.8
20240301211436 69 196 9.0 11.0 0.00 0.00 0.00 18 1100.7
20240301210935 70 164 6.0 11.0 0.00 0.00 0.00 18 1100.9
20240301210435 70 179 8.0 13.0 0.00 0.00 0.00 18 1101.0
20240301205935 70 161 12.0 15.0 0.00 0.00 0.00 19 1100.9
20240301205434 70 164 8.0 11.0 0.00 0.00 0.00 19 1101.1
20240301204934 69 162 6.0 14.0 0.00 0.00 0.00 19 1101.2
20240301204434 70 199 5.0 10.0 0.00 0.00 0.00 19 1101.4
20240301203932 69 216 6.0 11.0 0.00 0.00 0.00 20 1101.4
20240301203432 69 194 9.0 13.0 0.00 0.00 0.00 20 1101.5
20240301202933 69 201 15.0 23.0 0.00 0.00 0.00 20 1101.5
20240301202431 69 160 4.0 9.0 0.00 0.00 0.00 21 1101.5
20240301201931 68 129 5.0 10.0 0.00 0.00 0.00 21 1101.5
20240301201430 69 144 6.0 14.0 0.00 0.00 0.00 22 1101.7
20240301200929 68 79 4.0 14.0 0.00 0.00 0.00 23 1101.5
20240301200429 68 135 15.0 17.0 0.00 0.00 0.00 22 1101.8
20240301195929 68 173 6.0 18.0 0.00 0.00 0.00 23 1101.8
20240301195428 68 180 5.0 14.0 0.00 0.00 0.00 23 1101.6
20240301194926 68 191 10.0 22.0 0.00 0.00 0.00 23 1101.8
20240301194424 68 151 10.0 16.0 0.00 0.00 0.00 24 1101.7
20240301193924 67 160 9.0 22.0 0.00 0.00 0.00 24 1102.0
20240301193424 67 178 10.0 14.0 0.00 0.00 0.00 24 1101.8
20240301192923 67 161 9.0 13.0 0.00 0.00 0.00 23 1102.1
20240301192421 67 151 11.0 15.0 0.00 0.00 0.00 23 1102.1
20240301191920 66 181 14.0 19.0 0.00 0.00 0.00 23 1102.1
20240301191419 66 165 15.0 25.0 0.00 0.00 0.00 27 1101.7
20240301190919 66 132 12.0 19.0 0.00 0.00 0.00 26 1102.1
20240301190418 66 155 19.0 25.0 0.00 0.00 0.00 28 1102.0
20240301185917 65 162 12.0 17.0 0.00 0.00 0.00 28 1102.1
20240301185416 65 164 14.0 17.0 0.00 0.00 0.00 27 1102.2
20240301184914 65 146 8.0 21.0 0.00 0.00 0.00 27 1102.1
20240301184412 65 153 10.0 15.0 0.00 0.00 0.00 28 1102.2
20240301183911 66 159 12.0 17.0 0.00 0.00 0.00 27 1102.5
20240301183405 66 146 14.0 17.0 0.00 0.00 0.00 26 1102.4
20240301182904 65 206 12.0 19.0 0.00 0.00 0.00 26 1102.7
20240301182402 65 151 9.0 13.0 0.00 0.00 0.00 29 1102.6
20240301181901 64 134 6.0 10.0 0.00 0.00 0.00 29 1102.7
20240301181400 64 212 5.0 15.0 0.00 0.00 0.00 29 1102.8
20240301180858 64 137 10.0 17.0 0.00 0.00 0.00 29 1102.7
20240301180358 64 151 4.0 19.0 0.00 0.00 0.00 30 1103.0
20240301175857 63 175 5.0 11.0 0.00 0.00 0.00 32 1102.8
20240301175357 63 158 2.0 16.0 0.00 0.00 0.00 32 1103.1
20240301174855 63 155 7.0 16.0 0.00 0.00 0.00 32 1103.0
20240301174353 64 170 6.0 13.0 0.00 0.00 0.00 30 1103.0
20240301173851 63 120 2.0 10.0 0.00 0.00 0.00 31 1102.8
20240301173350 63 151 4.0 10.0 0.00 0.00 0.00 31 1102.9
20240301172849 63 98 2.0 9.0 0.00 0.00 0.00 32 1103.2
20240301172349 63 158 6.0 8.0 0.00 0.00 0.00 31 1103.3
20240301171849 62 140 5.0 9.0 0.00 0.00 0.00 32 1103.1
20240301171349 61 122 2.0 7.0 0.00 0.00 0.00 34 1103.3
20240301170848 62 52 4.0 6.0 0.00 0.00 0.00 35 1103.3
20240301170347 62 95 4.0 10.0 0.00 0.00 0.00 36 1103.2
20240301165846 61 114 1.0 4.0 0.00 0.00 0.00 35 1103.2
20240301165344 62 159 5.0 9.0 0.00 0.00 0.00 34 1103.5
20240301164843 62 132 0.0 6.0 0.00 0.00 0.00 34 1103.5
20240301164342 60 23 4.0 10.0 0.00 0.00 0.00 36 1103.6
20240301163840 61 76 1.0 8.0 0.00 0.00 0.00 35 1103.6
20240301163338 61 163 12.0 15.0 0.00 0.00 0.00 35 1103.3
20240301162838 61 148 2.0 4.0 0.00 0.00 0.00 36 1103.1
20240301162339 61 174 0.0 8.0 0.00 0.00 0.00 35 1103.2
20240301161838 60 161 2.0 3.0 0.00 0.00 0.00 37 1103.5
20240301161336 59 278 4.0 4.0 0.00 0.00 0.00 39 1103.5
20240301160835 59 327 3.0 4.0 0.00 0.00 0.00 41 1103.2
20240301160335 59 18 4.0 6.0 0.00 0.00 0.00 41 1103.2
20240301155834 59 168 2.0 6.0 0.00 0.00 0.00 38 1103.1
20240301155333 59 139 3.0 7.0 0.00 0.00 0.00 40 1103.1
20240301154830 58 155 5.0 7.0 0.00 0.00 0.00 40 1103.2
20240301154329 58 158 3.0 13.0 0.00 0.00 0.00 40 1103.2
20240301153828 58 158 7.0 11.0 0.00 0.00 0.00 41 1103.2
20240301153327 57 142 4.0 14.0 0.00 0.00 0.00 42 1103.1
20240301152825 57 161 6.0 16.0 0.00 0.00 0.00 43 1102.9
20240301152321 57 148 9.0 17.0 0.00 0.00 0.00 43 1102.9
20240301151821 57 116 9.0 14.0 0.00 0.00 0.00 42 1102.9
20240301151318 57 150 6.0 7.0 0.00 0.00 0.00 42 1103.1
20240301150816 57 142 8.0 18.0 0.00 0.00 0.00 40 1102.8
20240301150316 56 147 4.0 8.0 0.00 0.00 0.00 43 1102.9
20240301145815 56 147 7.0 10.0 0.00 0.00 0.00 43 1102.7
20240301145314 55 143 2.0 9.0 0.00 0.00 0.00 45 1102.8
20240301144813 55 155 8.0 13.0 0.00 0.00 0.00 45 1102.7
20240301144311 55 136 9.0 16.0 0.00 0.00 0.00 45 1102.8
20240301143810 56 165 5.0 16.0 0.00 0.00 0.00 44 1102.7
20240301143309 55 161 9.0 18.0 0.00 0.00 0.00 44 1102.5
20240301142809 55 125 7.0 14.0 0.00 0.00 0.00 44 1102.3
20240301142309 55 137 5.0 19.0 0.00 0.00 0.00 45 1102.5
20240301141809 55 163 5.0 13.0 0.00 0.00 0.00 45 1102.4
20240301141307 55 182 9.0 15.0 0.00 0.00 0.00 45 1102.4
20240301140806 55 134 5.0 8.0 0.00 0.00 0.00 45 1102.5
20240301140305 55 147 13.0 18.0 0.00 0.00 0.00 45 1102.5
20240301135804 55 171 6.0 13.0 0.00 0.00 0.00 46 1102.3
20240301135306 54 141 8.0 10.0 0.00 0.00 0.00 47 1102.3
20240301134803 54 142 7.0 14.0 0.00 0.00 0.00 47 1102.6
20240301134303 54 170 6.0 11.0 0.00 0.00 0.00 48 1102.4
20240301133801 55 187 8.0 15.0 0.00 0.00 0.00 46 1102.4
20240301133300 55 200 9.0 16.0 0.00 0.00 0.00 47 1102.3
20240301132759 55 178 4.0 8.0 0.00 0.00 0.00 47 1102.2
20240301132258 55 173 10.0 16.0 0.00 0.00 0.00 47 1101.8
20240301131756 55 184 4.0 6.0 0.00 0.00 0.00 47 1101.8
20240301131256 55 193 5.0 9.0 0.00 0.00 0.00 47 1101.7
20240301130755 55 149 6.0 11.0 0.00 0.00 0.00 47 1102.0
20240301130254 54 148 3.0 14.0 0.00 0.00 0.00 48 1101.7
20240301125753 55 150 5.0 17.0 0.00 0.00 0.00 48 1101.7
20240301125251 54 171 5.0 14.0 0.00 0.00 0.00 47 1101.6
20240301124749 54 218 7.0 13.0 0.00 0.00 0.00 49 1101.7
20240301124247 54 196 2.0 10.0 0.00 0.00 0.00 50 1101.6
20240301123745 54 131 3.0 8.0 0.00 0.00 0.00 50 1101.8
20240301123244 55 168 3.0 14.0 0.00 0.00 0.00 50 1101.7
20240301122743 55 144 3.0 14.0 0.00 0.00 0.00 49 1101.6
20240301122241 55 180 4.0 11.0 0.00 0.00 0.00 48 1101.5
20240301121740 55 157 7.0 8.0 0.00 0.00 0.00 48 1101.4
20240301121238 55 205 8.0 11.0 0.00 0.00 0.00 48 1101.2
20240301120737 55 174 9.0 15.0 0.00 0.00 0.00 49 1101.3
20240301120236 55 213 4.0 15.0 0.00 0.00 0.00 49 1101.4
20240301115734 55 146 4.0 9.0 0.00 0.00 0.00 49 1101.4
20240301115233 55 174 4.0 10.0 0.00 0.00 0.00 49 1101.6
20240301114732 55 187 3.0 11.0 0.00 0.00 0.00 48 1101.3
20240301114232 55 186 6.0 10.0 0.00 0.00 0.00 48 1101.3
20240301113731 56 151 4.0 8.0 0.00 0.00 0.00 48 1101.4
20240301113230 56 149 9.0 14.0 0.00 0.00 0.00 48 1101.5
20240301112729 56 206 1.0 6.0 0.00 0.00 0.00 48 1101.3
20240301112229 56 220 5.0 14.0 0.00 0.00 0.00 48 1101.6
20240301111726 56 190 5.0 8.0 0.00 0.00 0.00 49 1101.5
20240301111226 56 122 3.0 13.0 0.00 0.00 0.00 48 1101.5
20240301110725 56 159 3.0 15.0 0.00 0.00 0.00 47 1101.5
20240301110224 56 34 5.0 13.0 0.00 0.00 0.00 48 1101.1
20240301105723 56 145 5.0 10.0 0.00 0.00 0.00 49 1101.3
20240301105222 56 182 6.0 10.0 0.00 0.00 0.00 49 1101.4
20240301104720 56 168 5.0 9.0 0.00 0.00 0.00 49 1101.5
20240301104219 57 137 6.0 16.0 0.00 0.00 0.00 48 1101.4
20240301103718 57 147 6.0 13.0 0.00 0.00 0.00 48 1101.4
20240301103217 57 113 8.0 11.0 0.00 0.00 0.00 47 1101.3
20240301102716 57 243 5.0 9.0 0.00 0.00 0.00 49 1101.5
20240301102215 57 150 8.0 17.0 0.00 0.00 0.00 49 1101.4
20240301101714 57 155 6.0 15.0 0.00 0.00 0.00 49 1101.6
20240301101214 57 136 7.0 13.0 0.00 0.00 0.00 48 1101.7
20240301100712 57 155 7.0 14.0 0.00 0.00 0.00 48 1101.4
20240301100212 57 189 10.0 15.0 0.00 0.00 0.00 48 1101.3
20240301095711 57 162 6.0 14.0 0.00 0.00 0.00 47 1101.6
20240301095210 58 163 3.0 11.0 0.00 0.00 0.00 46 1101.5
20240301094711 57 168 6.0 15.0 0.00 0.00 0.00 47 1101.6
20240301094210 58 181 5.0 15.0 0.00 0.00 0.00 47 1101.5
20240301093709 58 143 8.0 17.0 0.00 0.00 0.00 47 1101.8
20240301093207 57 169 12.0 18.0 0.00 0.00 0.00 48 1101.6
20240301092706 58 170 12.0 16.0 0.00 0.00 0.00 48 1101.8
20240301092204 58 172 13.0 19.0 0.00 0.00 0.00 48 1101.7
20240301091704 58 194 11.0 18.0 0.00 0.00 0.00 48 1101.7
20240301091204 58 167 13.0 19.0 0.00 0.00 0.00 48 1102.1
20240301090702 58 151 10.0 14.0 0.00 0.00 0.00 47 1102.1
20240301090201 57 166 9.0 13.0 0.00 0.00 0.00 48 1102.0
20240301085658 57 159 6.0 13.0 0.00 0.00 0.00 49 1102.2
20240301085157 58 164 6.0 13.0 0.00 0.00 0.00 48 1102.0
20240301084655 58 142 9.0 15.0 0.00 0.00 0.00 48 1102.2
20240301084154 58 233 5.0 11.0 0.00 0.00 0.00 47 1102.0
20240301083653 58 178 7.0 11.0 0.00 0.00 0.00 48 1101.8
20240301083153 58 206 6.0 10.0 0.00 0.00 0.00 47 1101.8
20240301082653 58 232 6.0 9.0 0.00 0.00 0.00 48 1101.8
20240301082152 58 226 6.0 11.0 0.00 0.00 0.00 48 1101.8
20240301081651 58 128 4.0 9.0 0.00 0.00 0.00 48 1101.8
20240301081150 58 198 6.0 16.0 0.00 0.00 0.00 48 1101.6
20240301080648 58 164 9.0 16.0 0.00 0.00 0.00 48 1101.5
20240301080147 59 176 6.0 9.0 0.00 0.00 0.00 47 1101.6
20240301075645 59 177 4.0 11.0 0.00 0.00 0.00 47 1101.3
20240301075144 59 190 6.0 10.0 0.00 0.00 0.00 44 1101.3
20240301074643 60 129 4.0 10.0 0.00 0.00 0.00 43 1101.5
20240301074142 59 2 5.0 13.0 0.00 0.00 0.00 43 1101.3
20240301073640 59 141 6.0 14.0 0.00 0.00 0.00 43 1101.3
20240301073140 60 176 8.0 11.0 0.00 0.00 0.00 42 1101.1
20240301072639 60 133 8.0 13.0 0.00 0.00 0.00 42 1101.3
20240301072138 60 154 7.0 15.0 0.00 0.00 0.00 41 1101.1
20240301071636 60 168 8.0 18.0 0.00 0.00 0.00 42 1101.2
20240301071134 59 168 9.0 15.0 0.00 0.00 0.00 42 1101.2
20240301070632 60 182 8.0 13.0 0.00 0.00 0.00 41 1101.3
20240301070130 59 159 10.0 16.0 0.00 0.00 0.00 41 1101.3
20240301065629 59 174 7.0 10.0 0.00 0.00 0.00 41 1101.5
20240301065128 59 142 6.0 8.0 0.00 0.00 0.00 41 1101.5
20240301064627 59 198 4.0 9.0 0.00 0.00 0.00 41 1101.6
20240301064126 59 163 3.0 6.0 0.00 0.00 0.00 41 1101.7
20240301063626 59 187 5.0 9.0 0.00 0.00 0.00 42 1102.0
20240301063124 60 171 5.0 9.0 0.00 0.00 0.00 42 1101.6
20240301062624 60 192 3.0 7.0 0.00 0.00 0.00 42 1101.6
20240301062123 60 93 5.0 7.0 0.00 0.00 0.00 41 1101.6
20240301061623 60 172 3.0 6.0 0.00 0.00 0.00 42 1101.7
20240301061122 60 146 3.0 8.0 0.00 0.00 0.00 41 1101.7
20240301060621 60 99 4.0 7.0 0.00 0.00 0.00 42 1101.7
20240301060120 61 164 3.0 8.0 0.00 0.00 0.00 42 1101.6
20240301055619 61 199 4.0 8.0 0.00 0.00 0.00 41 1101.6
20240301055117 61 196 6.0 9.0 0.00 0.00 0.00 40 1101.6
20240301054616 61 170 3.0 7.0 0.00 0.00 0.00 40 1101.6
20240301054116 61 160 3.0 9.0 0.00 0.00 0.00 40 1101.6
20240301053614 61 179 2.0 7.0 0.00 0.00 0.00 41 1101.4
20240301053113 61 167 3.0 8.0 0.00 0.00 0.00 40 1101.6
20240301052612 62 96 4.0 8.0 0.00 0.00 0.00 40 1101.8
20240301052110 62 189 4.0 8.0 0.00 0.00 0.00 40 1101.8
20240301051609 62 173 4.0 9.0 0.00 0.00 0.00 39 1101.8
20240301051109 63 119 6.0 8.0 0.00 0.00 0.00 38 1101.8
20240301050608 63 160 6.0 13.0 0.00 0.00 0.00 38 1101.7
20240301050106 63 174 6.0 13.0 0.00 0.00 0.00 37 1101.8
20240301045606 63 170 9.0 13.0 0.00 0.00 0.00 37 1101.7
20240301045106 63 135 8.0 11.0 0.00 0.00 0.00 37 1102.0
20240301044605 64 147 5.0 11.0 0.00 0.00 0.00 36 1102.1
20240301044106 64 208 6.0 15.0 0.00 0.00 0.00 36 1101.7
20240301043605 64 160 10.0 17.0 0.00 0.00 0.00 35 1102.0
20240301043105 64 167 10.0 24.0 0.00 0.00 0.00 34 1101.7
20240301042603 65 103 9.0 14.0 0.00 0.00 0.00 33 1101.4
20240301042103 65 108 8.0 17.0 0.00 0.00 0.00 32 1101.6
20240301041603 65 145 11.0 18.0 0.00 0.00 0.00 32 1101.3
20240301041102 65 167 8.0 17.0 0.00 0.00 0.00 32 1101.5
20240301040601 65 179 13.0 17.0 0.00 0.00 0.00 33 1101.4
20240301040100 65 153 12.0 17.0 0.00 0.00 0.00 33 1101.5
20240301035559 65 187 6.0 11.0 0.00 0.00 0.00 32 1101.7
20240301035059 65 171 4.0 11.0 0.00 0.00 0.00 32 1101.5
20240301034558 65 146 5.0 11.0 0.00 0.00 0.00 31 1101.6
20240301034057 65 157 6.0 11.0 0.00 0.00 0.00 30 1101.4
20240301033557 65 161 3.0 8.0 0.00 0.00 0.00 29 1101.3
20240301033055 65 158 9.0 11.0 0.00 0.00 0.00 28 1101.2
20240301032554 66 153 5.0 8.0 0.00 0.00 0.00 28 1101.3
20240301032053 66 158 4.0 11.0 0.00 0.00 0.00 27 1101.4
20240301031551 66 119 4.0 9.0 0.00 0.00 0.00 28 1101.1
20240301031051 66 208 4.0 7.0 0.00 0.00 0.00 27 1101.2
20240301030550 66 178 6.0 8.0 0.00 0.00 0.00 27 1101.2
20240301030049 66 172 6.0 9.0 0.00 0.00 0.00 27 1101.2
20240301025547 66 175 1.0 4.0 0.00 0.00 0.00 28 1101.3
20240301025046 66 184 5.0 14.0 0.00 0.00 0.00 27 1101.2
20240301024546 66 151 9.0 11.0 0.00 0.00 0.00 27 1101.2
20240301024044 66 149 4.0 10.0 0.00 0.00 0.00 28 1101.5
20240301023542 66 146 3.0 8.0 0.00 0.00 0.00 28 1101.5
20240301023042 66 161 8.0 13.0 0.00 0.00 0.00 27 1101.4
20240301022542 66 160 4.0 6.0 0.00 0.00 0.00 28 1101.4
20240301022040 67 185 6.0 10.0 0.00 0.00 0.00 27 1101.1
20240301021538 67 188 4.0 8.0 0.00 0.00 0.00 27 1101.4
20240301021037 67 150 5.0 11.0 0.00 0.00 0.00 27 1101.3
20240301020537 67 161 5.0 10.0 0.00 0.00 0.00 27 1101.2
20240301020035 67 146 6.0 10.0 0.00 0.00 0.00 27 1101.3
20240301015534 67 149 7.0 18.0 0.00 0.00 0.00 27 1101.2
20240301015034 67 132 6.0 15.0 0.00 0.00 0.00 27 1101.0
20240301014532 67 141 4.0 8.0 0.00 0.00 0.00 26 1101.2
20240301014033 68 149 4.0 10.0 0.00 0.00 0.00 25 1101.3
20240301013532 68 154 1.0 7.0 0.00 0.00 0.00 25 1101.6
20240301013031 68 148 3.0 8.0 0.00 0.00 0.00 24 1101.5